Carson City, Michigan
Current Conditions -  °F | °C
As of 3:12 PM on Saturday 20 Dec 2014 (Local Time) from KAMN Reporting Station
Scattered Clouds Scattered Clouds  
Wind Chill: 30°   Ceiling: Unl
Heat Index: 30°   Visibility: 10mi
Dew Point: 24°   Wind: 3mph
Humidity: 78%   Direction: 190°S
Pressure: 30.26"   Gusts: NA
Location:  43.18°N, 84.85°W
Report Text: KAMN 202012Z AUTO 19003KT 10SM SCT017 M01/M05 A3026 RMK AO2 T10121046
Loading
Personal Weather Stations






























Interactive Weather Map New forecast layout! Learn more

10-Day Weather Forecast

Advertisements
Track Severe Weather on mobile